Time;durP1;ratioP1;P1;durP2;ratioP2;P2;SDS_P1;SDS_P2;PMS_P1;PMS_P2;Temp;Humidity;BMP_temperature;BMP_pressure;BME280_temperature;BME280_humidity;BME280_pressure;Samples;Min_cycle;Max_cycle;Signal;HPM_P1;HPM_P2
2022/01/21 00:01:40;;;;;;;8.88;2.50;;;-0.60;99.90;;;;;;5082383;28;20072;-81
2022/01/21 00:04:07;;;;;;;13.32;2.92;;;-0.50;99.90;;;;;;5080185;28;20032;-86
2022/01/21 00:06:33;;;;;;;7.97;2.28;;;-0.50;99.80;;;;;;5076180;28;20076;-82
2022/01/21 00:08:59;;;;;;;7.40;2.55;;;-0.50;99.80;;;;;;5080581;28;20080;-80
2022/01/21 00:11:26;;;;;;;6.88;2.50;;;-0.50;99.60;;;;;;5064629;28;20013;-80
2022/01/21 00:13:52;;;;;;;8.50;2.85;;;-0.40;99.80;;;;;;5059779;28;20029;-85
2022/01/21 00:16:24;;;;;;;8.88;2.30;;;-0.30;99.30;;;;;;5079864;28;20068;-81
2022/01/21 00:18:58;;;;;;;13.15;2.78;;;-0.30;99.10;;;;;;5052703;28;20048;-83
2022/01/21 00:32:23;;;;;;;6.65;2.53;;;-0.30;98.40;;;;;;5073014;28;20059;-85
2022/01/21 00:34:49;;;;;;;8.02;2.95;;;-0.30;98.70;;;;;;5072533;28;20029;-83
2022/01/21 00:37:15;;;;;;;8.45;2.55;;;-0.40;98.80;;;;;;5038004;28;20059;-83
2022/01/21 00:39:42;;;;;;;6.97;2.17;;;-0.30;98.60;;;;;;5072824;28;20033;-83
2022/01/21 00:44:51;;;;;;;15.23;2.38;;;-0.50;98.90;;;;;;5072910;28;20060;-83
2022/01/21 00:47:16;;;;;;;9.48;2.75;;;-0.40;98.90;;;;;;5055284;28;20029;-84
2022/01/21 00:49:42;;;;;;;9.65;3.10;;;-0.40;98.90;;;;;;5078559;28;20017;-80
2022/01/21 00:52:08;;;;;;;7.53;3.25;;;-0.30;99.00;;;;;;5079011;28;20021;-81
2022/01/21 00:54:34;;;;;;;7.97;2.53;;;-0.30;98.90;;;;;;5060452;28;20037;-82
2022/01/21 00:57:00;;;;;;;11.20;2.70;;;-0.30;98.70;;;;;;5072684;28;20064;-85
2022/01/21 00:59:26;;;;;;;7.78;2.50;;;-0.20;98.70;;;;;;5041494;28;20042;-84
2022/01/21 01:01:53;;;;;;;8.23;3.17;;;-0.20;98.50;;;;;;5058140;28;20108;-84
2022/01/21 01:04:19;;;;;;;6.32;3.25;;;-0.10;98.30;;;;;;5031507;28;20052;-85
2022/01/21 01:06:45;;;;;;;9.50;3.08;;;-0.10;98.40;;;;;;5032351;28;20479;-84
2022/01/21 01:09:10;;;;;;;9.35;3.00;;;-0.10;98.50;;;;;;5030702;28;20033;-84
2022/01/21 01:22:15;;;;;;;8.52;3.45;;;0.00;98.90;;;;;;5057981;28;20092;-81
2022/01/21 01:27:41;;;;;;;11.27;3.40;;;0.10;98.90;;;;;;5046964;28;20107;-83
2022/01/21 01:30:13;;;;;;;8.98;3.03;;;0.10;98.50;;;;;;5034821;28;20091;-83
2022/01/21 01:32:39;;;;;;;6.50;2.63;;;0.10;98.10;;;;;;5013129;28;20052;-84
2022/01/21 01:35:06;;;;;;;8.93;2.88;;;0.10;98.40;;;;;;5029894;28;20048;-83
2022/01/21 01:40:41;;;;;;;11.77;3.03;;;0.20;98.30;;;;;;5024740;28;20042;-84
2022/01/21 01:49:24;;;;;;;11.07;2.83;;;0.20;98.60;;;;;;5048835;28;20017;-83
2022/01/21 01:51:23;;;;;;;4.20;2.83;;;0.20;99.10;;;;;;5048783;28;20036;-84
2022/01/21 01:54:18;;;;;;;7.90;3.25;;;0.20;99.10;;;;;;5030767;28;20033;-84
2022/01/21 01:56:49;;;;;;;8.50;2.88;;;0.20;99.20;;;;;;5044010;28;20112;-83
2022/01/21 01:59:14;;;;;;;11.02;2.90;;;0.20;99.40;;;;;;5055962;28;20029;-84
2022/01/21 02:01:40;;;;;;;10.10;3.15;;;0.10;99.50;;;;;;5061685;28;20040;-84
2022/01/21 02:04:06;;;;;;;8.60;2.88;;;0.10;99.90;;;;;;5050536;28;20025;-85
2022/01/21 02:06:32;;;;;;;6.43;2.40;;;0.00;99.90;;;;;;5068874;28;20012;-86
2022/01/21 02:08:59;;;;;;;14.68;3.15;;;0.00;99.80;;;;;;5067317;28;20130;-83
2022/01/21 02:11:25;;;;;;;11.68;3.33;;;0.00;99.90;;;;;;5049903;28;20044;-84
2022/01/21 02:13:57;;;;;;;10.52;3.08;;;0.00;99.90;;;;;;5050085;28;20067;-83
2022/01/21 02:21:36;;;;;;;8.40;2.97;;;0.10;99.00;;;;;;5068343;28;20036;-83
2022/01/21 02:24:08;;;;;;;4.72;2.65;;;0.10;98.90;;;;;;5069482;28;20013;-84
2022/01/21 02:26:35;;;;;;;8.25;3.03;;;0.10;98.80;;;;;;5052176;28;20033;-84
2022/01/21 02:29:04;;;;;;;6.32;2.78;;;0.10;98.90;;;;;;5043943;28;20043;-85
2022/01/21 02:31:30;;;;;;;8.25;3.17;;;0.10;99.10;;;;;;5055189;28;20036;-81
2022/01/21 02:33:57;;;;;;;8.02;2.45;;;0.20;98.60;;;;;;5070322;28;20032;-83
2022/01/21 02:36:23;;;;;;;14.20;3.70;;;0.10;98.50;;;;;;5067534;28;20077;-84
2022/01/21 02:38:49;;;;;;;13.25;2.90;;;0.20;98.40;;;;;;5047814;28;20037;-84
2022/01/21 02:41:15;;;;;;;8.00;2.80;;;0.20;98.00;;;;;;5043305;28;20025;-84
2022/01/21 02:43:41;;;;;;;7.00;2.55;;;0.20;98.10;;;;;;5063144;28;20029;-85
2022/01/21 02:46:09;;;;;;;9.02;2.50;;;0.20;97.90;;;;;;5046133;28;20028;-84
2022/01/21 02:48:37;;;;;;;9.68;2.80;;;0.20;98.10;;;;;;5044637;28;20101;-82
2022/01/21 02:51:06;;;;;;;7.72;4.10;;;0.20;98.00;;;;;;5069276;28;20036;-84
2022/01/21 02:56:13;;;;;;;10.80;2.92;;;0.10;98.10;;;;;;5069075;28;20029;-82
2022/01/21 02:58:40;;;;;;;8.55;2.78;;;0.10;98.20;;;;;;5040224;28;20052;-85
2022/01/21 03:01:06;;;;;;;7.30;3.00;;;0.10;97.80;;;;;;5039905;28;20022;-84
2022/01/21 03:03:32;;;;;;;15.18;2.85;;;0.10;98.10;;;;;;5050801;28;20020;-80
2022/01/21 03:06:00;;;;;;;6.63;2.45;;;0.10;97.90;;;;;;5033217;28;20028;-85
2022/01/21 03:08:26;;;;;;;7.90;2.90;;;0.10;97.80;;;;;;5030142;28;20029;-84
2022/01/21 03:10:51;;;;;;;9.77;2.30;;;0.10;97.60;;;;;;5032209;28;20079;-86
2022/01/21 03:13:18;;;;;;;8.38;2.25;;;0.10;97.70;;;;;;5032173;28;20481;-84
2022/01/21 03:15:44;;;;;;;8.43;2.45;;;0.10;97.70;;;;;;5049439;28;20029;-85
2022/01/21 03:18:10;;;;;;;12.77;2.35;;;0.10;97.90;;;;;;5035341;28;20113;-83
2022/01/21 03:20:35;;;;;;;7.10;2.45;;;0.10;98.20;;;;;;5026132;28;20052;-83
2022/01/21 03:23:01;;;;;;;9.40;2.63;;;0.20;97.60;;;;;;5035607;28;20032;-80
2022/01/21 03:25:27;;;;;;;10.15;2.72;;;0.30;97.10;;;;;;5037011;28;20033;-83
2022/01/21 03:27:53;;;;;;;12.43;2.55;;;0.30;97.20;;;;;;5054331;28;20072;-85
2022/01/21 03:30:19;;;;;;;15.00;2.58;;;0.30;97.00;;;;;;5053173;28;20485;-83
2022/01/21 03:32:45;;;;;;;8.93;3.03;;;0.20;97.20;;;;;;5052905;28;20074;-81
2022/01/21 03:35:12;;;;;;;9.68;2.78;;;0.20;97.20;;;;;;5054231;28;20024;-83
2022/01/21 03:37:38;;;;;;;10.63;2.80;;;0.30;96.90;;;;;;5054460;28;20014;-81
2022/01/21 03:40:05;;;;;;;9.60;2.67;;;0.30;96.50;;;;;;5049640;28;20363;-83
2022/01/21 03:42:31;;;;;;;9.07;2.72;;;0.30;96.30;;;;;;5055205;28;20040;-82
2022/01/21 03:44:56;;;;;;;11.48;2.53;;;0.20;96.40;;;;;;5033901;28;20041;-85
2022/01/21 03:47:22;;;;;;;9.07;2.47;;;0.20;96.70;;;;;;5049702;28;20029;-85
2022/01/21 03:49:54;;;;;;;12.82;2.75;;;0.20;96.80;;;;;;5049256;28;20026;-84
2022/01/21 03:52:21;;;;;;;12.32;3.13;;;0.20;96.90;;;;;;5049683;28;20060;-82
2022/01/21 03:54:47;;;;;;;14.50;3.03;;;0.20;96.90;;;;;;5050586;28;20033;-82
2022/01/21 03:57:13;;;;;;;8.82;3.08;;;0.10;97.20;;;;;;5052617;28;20010;-80
2022/01/21 03:59:38;;;;;;;10.23;3.08;;;0.10;97.40;;;;;;5057797;28;20039;-81
2022/01/21 04:02:06;;;;;;;6.53;2.70;;;0.10;97.40;;;;;;5032757;28;20053;-84
2022/01/21 04:04:33;;;;;;;13.00;3.17;;;0.10;97.50;;;;;;5020886;28;20043;-82
2022/01/21 04:06:58;;;;;;;9.43;3.20;;;0.00;97.30;;;;;;5019756;28;20133;-83
2022/01/21 04:09:24;;;;;;;5.35;2.35;;;0.00;97.70;;;;;;5023299;28;20069;-83
2022/01/21 04:11:51;;;;;;;9.93;2.17;;;-0.10;97.80;;;;;;5046393;28;20040;-83
2022/01/21 04:14:17;;;;;;;7.95;2.53;;;-0.10;97.80;;;;;;5047417;28;20032;-84
2022/01/21 04:16:43;;;;;;;12.65;3.42;;;-0.10;98.10;;;;;;5031169;28;20025;-86
2022/01/21 04:19:08;;;;;;;10.38;2.90;;;-0.10;98.10;;;;;;5049602;28;20248;-83
2022/01/21 04:21:34;;;;;;;6.18;2.10;;;-0.10;98.30;;;;;;5049930;28;20056;-84
2022/01/21 04:24:01;;;;;;;7.15;2.55;;;-0.20;98.80;;;;;;5032940;28;20036;-85
2022/01/21 04:26:27;;;;;;;17.45;3.35;;;-0.20;99.20;;;;;;5049793;28;20089;-84
2022/01/21 04:28:53;;;;;;;17.48;4.45;;;-0.10;98.80;;;;;;5056485;28;20028;-81
2022/01/21 04:31:18;;;;;;;14.32;3.28;;;0.00;98.60;;;;;;5060911;28;20025;-83
2022/01/21 04:33:44;;;;;;;10.40;2.97;;;0.00;98.80;;;;;;5052233;28;20108;-84
2022/01/21 04:36:10;;;;;;;8.75;3.08;;;-0.10;98.70;;;;;;5054980;28;20033;-83
2022/01/21 04:38:37;;;;;;;7.70;3.05;;;0.00;98.80;;;;;;5069562;28;20029;-77
2022/01/21 04:48:57;;;;;;;7.03;2.78;;;-0.10;99.50;;;;;;5058308;28;20055;-79
2022/01/21 04:51:28;;;;;;;12.38;3.47;;;-0.20;99.70;;;;;;5062478;28;20020;-79
2022/01/21 04:53:54;;;;;;;10.07;3.15;;;-0.10;99.80;;;;;;5035247;28;20029;-79
2022/01/21 04:56:21;;;;;;;13.35;3.30;;;-0.10;99.70;;;;;;5049787;28;20120;-78
2022/01/21 04:58:47;;;;;;;11.13;4.05;;;-0.10;99.80;;;;;;5057793;28;20036;-78
2022/01/21 05:01:13;;;;;;;7.57;3.05;;;-0.10;99.80;;;;;;5058186;28;20025;-78
2022/01/21 05:03:41;;;;;;;13.10;3.13;;;-0.10;99.90;;;;;;5042791;28;20086;-81
2022/01/21 05:06:08;;;;;;;6.03;3.00;;;-0.10;99.90;;;;;;5044558;28;20036;-83
2022/01/21 05:08:46;;;;;;;16.92;3.83;;;-0.10;99.90;;;;;;5027215;28;20030;-83
2022/01/21 05:11:14;;;;;;;9.18;2.40;;;0.00;99.90;;;;;;5045120;28;20113;-84
2022/01/21 05:13:43;;;;;;;12.15;3.08;;;0.00;99.90;;;;;;5031953;28;20021;-81
2022/01/21 05:18:35;;;;;;;7.90;2.90;;;0.10;99.80;;;;;;5065436;28;20109;-82
2022/01/21 05:21:02;;;;;;;8.00;3.50;;;0.10;99.90;;;;;;5069790;28;20032;-80
2022/01/21 05:23:29;;;;;;;8.55;3.33;;;0.10;99.60;;;;;;5067610;28;20048;-82
2022/01/21 05:25:55;;;;;;;7.82;2.92;;;0.10;99.90;;;;;;5046714;28;20108;-82
2022/01/21 05:28:21;;;;;;;7.65;3.40;;;0.10;99.90;;;;;;5056646;28;20033;-85
2022/01/21 05:30:46;;;;;;;6.28;2.85;;;0.10;99.90;;;;;;5033359;28;20027;-84
2022/01/21 05:33:12;;;;;;;8.68;3.25;;;0.20;99.90;;;;;;5039912;28;20029;-83
2022/01/21 05:35:38;;;;;;;8.18;2.53;;;0.20;99.70;;;;;;5041252;28;20366;-83
2022/01/21 05:38:03;;;;;;;12.57;3.67;;;0.20;99.80;;;;;;5040738;28;20052;-84
2022/01/21 05:40:29;;;;;;;14.93;3.53;;;0.10;99.90;;;;;;5044892;28;20674;-84
2022/01/21 05:42:56;;;;;;;9.73;3.22;;;0.10;99.80;;;;;;5062544;28;20112;-84
2022/01/21 05:48:06;;;;;;;14.65;3.20;;;0.20;99.70;;;;;;5085135;28;20330;-81
2022/01/21 05:50:31;;;;;;;6.68;2.03;;;0.20;99.20;;;;;;5097092;28;20012;-81
2022/01/21 05:52:57;;;;;;;6.07;2.10;;;0.20;98.40;;;;;;5096930;28;20031;-82
2022/01/21 05:55:23;;;;;;;4.20;1.20;;;0.20;97.00;;;;;;5096940;28;20016;-82
2022/01/21 05:57:49;;;;;;;7.97;1.77;;;-0.10;97.40;;;;;;5058833;28;20049;-83
2022/01/21 06:00:15;;;;;;;3.28;1.27;;;-0.20;97.80;;;;;;5048696;28;20064;-82
2022/01/21 06:02:41;;;;;;;4.57;1.83;;;-0.40;98.40;;;;;;5059737;28;20021;-84
2022/01/21 06:05:07;;;;;;;4.88;1.42;;;-0.50;98.90;;;;;;5042667;28;20025;-83
2022/01/21 06:07:33;;;;;;;5.40;1.40;;;-0.50;98.90;;;;;;5043208;28;20021;-85
2022/01/21 06:09:59;;;;;;;3.30;1.20;;;-0.50;99.30;;;;;;5043536;28;20047;-83
2022/01/21 06:12:25;;;;;;;2.40;0.80;;;-0.50;99.70;;;;;;5062857;28;20452;-83
2022/01/21 06:14:51;;;;;;;4.88;1.63;;;-0.60;99.90;;;;;;5044088;28;20040;-83
2022/01/21 06:17:16;;;;;;;11.70;1.30;;;-0.60;99.90;;;;;;5041278;28;20030;-82
2022/01/21 06:19:44;;;;;;;11.05;1.20;;;-0.70;99.90;;;;;;5054735;28;20597;-84
2022/01/21 06:22:10;;;;;;;6.18;1.30;;;-0.70;99.90;;;;;;5024933;28;20369;-84
2022/01/21 06:24:36;;;;;;;8.77;2.45;;;-0.70;99.90;;;;;;5067185;28;20021;-81
2022/01/21 06:27:04;;;;;;;5.03;1.73;;;-0.60;99.90;;;;;;5077209;28;20021;-79
2022/01/21 06:29:30;;;;;;;6.40;1.33;;;-0.60;99.80;;;;;;5068168;28;20024;-80
2022/01/21 06:31:56;;;;;;;5.07;1.35;;;-0.60;99.90;;;;;;5058736;28;20072;-83
2022/01/21 06:34:22;;;;;;;11.77;1.58;;;-0.60;99.90;;;;;;5076505;28;20117;-81
2022/01/21 06:36:47;;;;;;;10.95;2.15;;;-0.70;99.90;;;;;;5061669;28;20104;-81
2022/01/21 06:39:13;;;;;;;10.18;1.58;;;-0.70;99.80;;;;;;5026920;28;20040;-82
2022/01/21 06:41:40;;;;;;;8.07;2.15;;;-0.70;99.90;;;;;;5022415;28;20030;-84
2022/01/21 06:44:07;;;;;;;5.07;1.63;;;-0.80;99.90;;;;;;5023271;28;20039;-83
2022/01/21 06:46:33;;;;;;;7.63;1.83;;;-0.80;99.90;;;;;;5024008;28;20079;-83
2022/01/21 06:48:59;;;;;;;5.63;1.88;;;-0.90;99.90;;;;;;5023299;28;20033;-82
2022/01/21 06:51:25;;;;;;;6.80;1.65;;;-0.80;99.90;;;;;;5023763;28;20548;-84
2022/01/21 06:53:50;;;;;;;4.80;1.70;;;-0.80;99.90;;;;;;5042177;28;20055;-83
2022/01/21 06:56:16;;;;;;;10.20;2.00;;;-0.80;99.90;;;;;;5048443;28;20036;-84
2022/01/21 06:58:42;;;;;;;10.48;2.30;;;-0.90;99.90;;;;;;5035820;28;20016;-84
2022/01/21 07:01:08;;;;;;;8.43;2.00;;;-0.90;99.90;;;;;;5038264;28;20017;-83
2022/01/21 07:03:34;;;;;;;12.07;2.25;;;-0.90;99.90;;;;;;5050965;28;20097;-81
2022/01/21 07:05:59;;;;;;;6.60;1.75;;;-0.90;99.80;;;;;;5059909;28;20025;-83
2022/01/21 07:08:27;;;;;;;20.05;2.05;;;-0.90;99.60;;;;;;5046636;28;20029;-84
2022/01/21 07:10:53;;;;;;;8.07;1.42;;;-1.00;99.80;;;;;;5063516;28;20547;-82
2022/01/21 07:13:19;;;;;;;8.63;1.77;;;-1.00;99.80;;;;;;5074409;28;20072;-83
2022/01/21 07:15:45;;;;;;;6.68;1.75;;;-1.00;99.90;;;;;;5030055;28;20025;-84
2022/01/21 07:18:10;;;;;;;5.00;1.42;;;-0.90;99.90;;;;;;5025690;28;20509;-82
2022/01/21 07:20:37;;;;;;;5.55;1.90;;;-0.90;99.90;;;;;;5024154;28;20053;-83
2022/01/21 07:23:03;;;;;;;7.60;2.00;;;-0.80;99.60;;;;;;5048081;28;20037;-81
2022/01/21 07:25:29;;;;;;;7.38;1.70;;;-0.70;99.20;;;;;;5044382;28;20021;-83
2022/01/21 07:27:54;;;;;;;9.18;2.40;;;-0.60;98.70;;;;;;5036243;28;20044;-84
2022/01/21 07:30:20;;;;;;;9.02;2.10;;;-0.40;98.40;;;;;;5035081;28;20064;-83
2022/01/21 07:32:47;;;;;;;6.15;2.42;;;-0.40;98.50;;;;;;5052843;28;20037;-81
2022/01/21 07:35:14;;;;;;;11.98;2.55;;;-0.40;98.40;;;;;;5053014;28;20026;-82
2022/01/21 07:37:40;;;;;;;11.25;3.00;;;-0.30;98.20;;;;;;5024621;28;20033;-83
2022/01/21 07:40:07;;;;;;;7.28;1.88;;;-0.30;98.00;;;;;;5063865;28;20043;-82
2022/01/21 07:42:33;;;;;;;9.88;2.10;;;-0.30;98.10;;;;;;5052191;28;20022;-82
2022/01/21 07:44:59;;;;;;;9.15;1.75;;;-0.30;98.30;;;;;;5061473;28;20036;-81
2022/01/21 07:47:25;;;;;;;9.57;2.50;;;-0.20;98.30;;;;;;5051004;28;20029;-83
2022/01/21 07:49:51;;;;;;;9.93;2.45;;;-0.10;98.10;;;;;;5044394;28;20167;-81
2022/01/21 07:52:17;;;;;;;11.82;3.20;;;0.10;97.10;;;;;;5046921;28;20124;-81
2022/01/21 07:54:43;;;;;;;14.43;3.03;;;0.10;96.60;;;;;;5048337;28;20108;-81
2022/01/21 07:57:10;;;;;;;11.52;3.55;;;0.10;97.10;;;;;;5048848;28;20035;-82
2022/01/21 07:59:36;;;;;;;13.20;2.80;;;0.00;97.40;;;;;;5049041;28;20059;-80
2022/01/21 08:02:03;;;;;;;12.50;3.17;;;-0.10;97.50;;;;;;5050069;28;20021;-82
2022/01/21 08:04:29;;;;;;;11.55;2.70;;;-0.20;97.50;;;;;;5050991;28;20021;-81
2022/01/21 08:06:54;;;;;;;8.68;3.28;;;-0.30;97.80;;;;;;5050921;28;20053;-81
2022/01/21 08:09:24;;;;;;;16.05;3.63;;;-0.30;98.10;;;;;;5031157;28;20101;-81
2022/01/21 08:11:54;;;;;;;12.35;4.80;;;-0.30;98.00;;;;;;5050036;28;20044;-82
2022/01/21 08:14:22;;;;;;;6.95;2.80;;;-0.30;98.30;;;;;;5050902;28;20083;-81
2022/01/21 08:16:48;;;;;;;14.50;3.03;;;-0.40;98.50;;;;;;5057420;28;20084;-80
2022/01/21 08:19:14;;;;;;;14.43;3.42;;;-0.40;98.80;;;;;;5057384;28;20075;-80
2022/01/21 08:21:40;;;;;;;9.95;3.08;;;-0.50;98.80;;;;;;5074977;28;20029;-82
2022/01/21 08:24:07;;;;;;;8.77;2.90;;;-0.50;99.00;;;;;;5053664;28;20021;-82
2022/01/21 08:26:35;;;;;;;8.23;3.67;;;-0.40;98.90;;;;;;5054287;28;20029;-82
2022/01/21 08:29:02;;;;;;;16.77;3.35;;;-0.30;99.30;;;;;;5040501;28;20061;-82
2022/01/21 08:31:28;;;;;;;15.43;3.55;;;-0.10;98.70;;;;;;5034880;28;20497;-82
2022/01/21 08:33:54;;;;;;;8.90;2.80;;;0.00;98.30;;;;;;5053580;28;20032;-82
2022/01/21 08:36:21;;;;;;;11.95;2.90;;;0.00;98.10;;;;;;5054787;28;20037;-82
2022/01/21 08:38:47;;;;;;;15.50;3.83;;;0.00;98.10;;;;;;5034480;28;20034;-82
2022/01/21 08:41:13;;;;;;;7.90;2.97;;;0.10;97.50;;;;;;5052357;28;20299;-82
2022/01/21 08:43:39;;;;;;;8.40;3.22;;;0.20;97.10;;;;;;5051342;28;20131;-82
2022/01/21 08:46:05;;;;;;;12.43;2.70;;;0.20;97.00;;;;;;5052977;28;20097;-82
2022/01/21 08:48:30;;;;;;;7.55;2.63;;;0.10;97.20;;;;;;5034288;28;20433;-82
2022/01/21 08:50:58;;;;;;;8.85;2.80;;;0.20;97.80;;;;;;5033594;28;20029;-82
2022/01/21 08:53:36;;;;;;;11.20;3.20;;;0.30;97.10;;;;;;5032887;28;20109;-83
2022/01/21 08:56:04;;;;;;;9.68;2.88;;;0.40;97.30;;;;;;5055031;28;20040;-82
2022/01/21 08:58:30;;;;;;;12.43;2.97;;;0.60;96.60;;;;;;5060056;28;20204;-83
2022/01/21 09:00:55;;;;;;;10.50;2.78;;;1.00;96.10;;;;;;5036671;28;20033;-83
2022/01/21 09:03:21;;;;;;;10.02;3.10;;;1.10;94.00;;;;;;5054890;28;20039;-83
2022/01/21 09:05:51;;;;;;;8.82;2.50;;;1.10;94.00;;;;;;5034472;28;20040;-83
2022/01/21 09:08:23;;;;;;;11.70;3.10;;;1.00;93.80;;;;;;5071626;28;20117;-83
2022/01/21 09:10:50;;;;;;;8.55;2.80;;;0.80;94.30;;;;;;5071072;28;20028;-83
2022/01/21 09:16:42;;;;;;;7.65;2.45;;;1.00;94.30;;;;;;5017684;28;20025;-82
2022/01/21 09:19:11;;;;;;;11.68;2.72;;;1.20;94.40;;;;;;5050486;28;20045;-82
2022/01/21 09:21:42;;;;;;;13.55;2.92;;;1.00;93.20;;;;;;5031703;28;20072;-82
2022/01/21 09:24:08;;;;;;;7.53;2.75;;;0.90;93.40;;;;;;5030551;28;20093;-82
2022/01/21 09:30:05;;;;;;;10.13;2.70;;;0.80;94.40;;;;;;5051304;28;20037;-82
2022/01/21 09:32:32;;;;;;;7.82;2.45;;;1.20;93.90;;;;;;5041673;28;20053;-82
2022/01/21 09:34:59;;;;;;;5.95;2.45;;;1.30;93.50;;;;;;5047702;28;20026;-81
2022/01/21 09:37:24;;;;;;;13.27;2.47;;;1.40;92.60;;;;;;5038590;28;20092;-81
2022/01/21 09:39:50;;;;;;;9.13;2.70;;;1.70;92.50;;;;;;5073557;28;20029;-79
2022/01/21 09:42:17;;;;;;;9.77;2.55;;;2.00;91.60;;;;;;5054512;28;20021;-80
2022/01/21 09:44:45;;;;;;;7.43;2.90;;;2.30;91.30;;;;;;5071113;28;20078;-81
2022/01/21 09:47:14;;;;;;;9.25;2.95;;;2.50;90.10;;;;;;5055931;28;20092;-79
2022/01/21 09:49:42;;;;;;;7.85;2.63;;;2.40;89.40;;;;;;5053164;28;20101;-80
2022/01/21 09:52:11;;;;;;;6.30;2.40;;;2.30;90.10;;;;;;5054071;28;20077;-81
2022/01/21 09:54:43;;;;;;;10.93;2.75;;;2.20;90.40;;;;;;5052825;28;20082;-80
2022/01/21 09:57:09;;;;;;;7.00;2.10;;;2.00;87.50;;;;;;5052663;28;20021;-80
2022/01/21 09:59:38;;;;;;;13.80;3.40;;;1.90;88.00;;;;;;5050578;28;20439;-81
2022/01/21 10:02:08;;;;;;;16.40;3.25;;;1.70;87.90;;;;;;5067971;28;20000;-81
2022/01/21 10:04:42;;;;;;;9.63;2.22;;;1.40;87.80;;;;;;5053061;28;20033;-81
2022/01/21 10:07:15;;;;;;;10.38;2.45;;;1.20;88.80;;;;;;5070071;28;20081;-81
2022/01/21 10:09:46;;;;;;;6.25;1.90;;;1.00;90.10;;;;;;5037486;28;20026;-81
2022/01/21 10:12:13;;;;;;;14.75;2.78;;;0.90;90.40;;;;;;5050308;28;20079;-82
2022/01/21 10:14:40;;;;;;;7.25;2.50;;;0.80;90.40;;;;;;5050409;28;20033;-80
2022/01/21 10:17:06;;;;;;;7.07;2.38;;;0.90;90.50;;;;;;5031934;28;20101;-81
2022/01/21 10:19:34;;;;;;;19.55;5.88;;;1.00;89.90;;;;;;5030977;28;20044;-80
2022/01/21 10:22:19;;;;;;;6.55;2.50;;;1.00;90.00;;;;;;5049266;28;20092;-80
2022/01/21 10:24:59;;;;;;;11.45;3.40;;;0.90;90.50;;;;;;5032416;28;20040;-80
2022/01/21 10:27:26;;;;;;;10.02;2.50;;;0.70;90.90;;;;;;5050811;28;20017;-80
2022/01/21 10:29:53;;;;;;;9.63;2.10;;;0.80;90.50;;;;;;5058754;28;20093;-81
2022/01/21 10:32:35;;;;;;;7.55;2.38;;;0.90;90.50;;;;;;5052587;28;20047;-80
2022/01/21 10:35:00;;;;;;;6.70;2.57;;;1.10;90.50;;;;;;5056748;28;20029;-81
2022/01/21 10:37:34;;;;;;;11.25;2.90;;;1.30;90.00;;;;;;5071605;28;20672;-82
2022/01/21 10:40:05;;;;;;;12.00;3.20;;;1.30;90.20;;;;;;5055033;28;20044;-80
2022/01/21 10:42:31;;;;;;;8.18;2.47;;;1.50;90.00;;;;;;5075475;28;20048;-81
2022/01/21 10:44:58;;;;;;;12.73;2.97;;;1.60;89.50;;;;;;5074087;28;20037;-80
2022/01/21 10:47:29;;;;;;;8.95;2.53;;;1.80;88.70;;;;;;5055164;28;20017;-80
2022/01/21 10:50:07;;;;;;;7.50;3.00;;;1.70;89.60;;;;;;5055605;28;20048;-80
2022/01/21 10:52:36;;;;;;;10.57;2.88;;;1.60;90.00;;;;;;5055897;28;20025;-80
2022/01/21 10:55:05;;;;;;;9.82;2.63;;;1.50;90.60;;;;;;5053878;28;20089;-79
2022/01/21 10:57:32;;;;;;;7.53;2.15;;;1.50;91.10;;;;;;5051446;28;20017;-79
2022/01/21 11:00:10;;;;;;;7.68;2.70;;;1.50;90.60;;;;;;5058593;28;20044;-80
2022/01/21 11:02:40;;;;;;;10.50;2.53;;;1.40;90.70;;;;;;5026554;28;20061;-79
2022/01/21 11:05:29;;;;;;;7.60;2.45;;;1.40;91.20;;;;;;5039799;28;20108;-78
2022/01/21 11:08:03;;;;;;;13.55;3.28;;;1.40;91.00;;;;;;5037497;28;20022;-80
2022/01/21 11:10:31;;;;;;;16.60;3.72;;;1.50;90.50;;;;;;5037665;28;20033;-80
2022/01/21 11:12:58;;;;;;;10.45;3.20;;;1.60;90.40;;;;;;5038007;28;20081;-80
2022/01/21 11:15:24;;;;;;;8.27;2.83;;;1.60;90.00;;;;;;5036353;28;20368;-80
2022/01/21 11:17:58;;;;;;;9.30;2.95;;;1.60;89.60;;;;;;5038756;28;20087;-80
2022/01/21 11:20:39;;;;;;;13.93;2.92;;;1.60;88.60;;;;;;5020993;28;20021;-81
2022/01/21 11:23:08;;;;;;;12.18;2.78;;;1.50;89.30;;;;;;5040569;28;20021;-80
2022/01/21 11:25:44;;;;;;;15.50;3.20;;;1.40;88.90;;;;;;5059533;28;20017;-81
2022/01/21 11:28:21;;;;;;;7.55;1.90;;;1.20;89.00;;;;;;5040213;28;20033;-80
2022/01/21 11:30:51;;;;;;;7.03;2.33;;;1.00;88.00;;;;;;5054573;28;20023;-81
2022/01/21 11:33:18;;;;;;;10.63;2.13;;;0.80;88.50;;;;;;5043267;28;20105;-81
2022/01/21 11:35:47;;;;;;;9.45;2.20;;;0.60;89.80;;;;;;5051912;28;20018;-80
2022/01/21 11:38:15;;;;;;;7.28;2.33;;;0.50;89.30;;;;;;5055486;28;20052;-80
2022/01/21 11:40:41;;;;;;;11.40;2.15;;;0.40;89.60;;;;;;5038175;28;20064;-79
2022/01/21 11:43:09;;;;;;;7.18;2.10;;;0.30;90.00;;;;;;5054574;28;20017;-79
2022/01/21 11:50:46;;;;;;;8.13;2.00;;;0.90;87.60;;;;;;5073412;28;20013;-79
2022/01/21 11:53:12;;;;;;;4.82;1.70;;;1.00;87.20;;;;;;5060375;28;20021;-79
2022/01/21 11:55:47;;;;;;;10.55;2.50;;;1.20;85.70;;;;;;5054718;28;20049;-80
2022/01/21 11:58:23;;;;;;;7.50;2.00;;;1.20;85.20;;;;;;5055679;28;20049;-82
2022/01/21 12:00:52;;;;;;;6.15;2.13;;;1.20;84.50;;;;;;5045229;28;20052;-84
2022/01/21 12:03:21;;;;;;;8.95;2.20;;;1.10;83.90;;;;;;5033846;28;20030;-79
2022/01/21 12:05:47;;;;;;;5.85;1.65;;;1.00;84.80;;;;;;5036114;28;20039;-83
2022/01/21 12:08:13;;;;;;;11.73;1.80;;;0.90;85.10;;;;;;5076146;28;20033;-81
2022/01/21 12:10:42;;;;;;;7.95;1.85;;;1.00;85.60;;;;;;5058261;28;20051;-81
2022/01/21 12:13:16;;;;;;;6.15;1.65;;;1.20;85.30;;;;;;5058700;28;20013;-82
2022/01/21 12:18:55;;;;;;;6.72;1.90;;;1.60;82.90;;;;;;5076136;28;20025;-80
2022/01/21 12:21:24;;;;;;;12.98;2.33;;;1.80;82.80;;;;;;5058533;28;20159;-83
2022/01/21 12:23:50;;;;;;;9.05;1.60;;;2.10;81.30;;;;;;5058670;28;20025;-82
2022/01/21 12:26:26;;;;;;;4.07;1.90;;;2.10;80.70;;;;;;5053950;28;20116;-80
2022/01/21 12:28:58;;;;;;;9.75;1.80;;;2.10;79.60;;;;;;5046759;28;20039;-80
2022/01/21 12:32:06;;;;;;;9.18;1.52;;;2.40;78.90;;;;;;5069488;28;20060;-81
2022/01/21 12:35:16;;;;;;;8.55;2.05;;;2.70;77.20;;;;;;5074520;28;20037;-82
2022/01/21 12:40:56;;;;;;;12.55;2.20;;;3.10;74.00;;;;;;5049851;28;20033;-83
2022/01/21 12:43:39;;;;;;;7.40;1.50;;;3.10;73.40;;;;;;5048893;28;20108;-83
2022/01/21 12:46:07;;;;;;;13.93;3.30;;;3.10;73.90;;;;;;5033602;28;20028;-80
2022/01/21 12:48:37;;;;;;;10.90;2.60;;;3.10;74.00;;;;;;5050001;28;20042;-82
2022/01/21 12:51:19;;;;;;;10.57;2.97;;;2.90;74.00;;;;;;5031579;28;20030;-81
2022/01/21 12:56:42;;;;;;;11.75;2.53;;;2.50;76.20;;;;;;5049978;28;20087;-82
2022/01/21 12:59:12;;;;;;;7.00;2.10;;;2.60;76.80;;;;;;5032874;28;20026;-83
2022/01/21 13:01:38;;;;;;;4.22;1.65;;;2.70;76.30;;;;;;5066260;28;20016;-83
2022/01/21 13:04:15;;;;;;;8.82;1.75;;;2.90;74.60;;;;;;5074521;28;20032;-81
2022/01/21 13:07:04;;;;;;;9.13;1.92;;;3.10;74.60;;;;;;5082855;28;20481;-83
2022/01/21 13:09:53;;;;;;;10.00;3.20;;;3.30;73.40;;;;;;5054771;28;20028;-83
2022/01/21 13:12:22;;;;;;;7.05;1.92;;;3.50;72.90;;;;;;5017800;28;20040;-82
2022/01/21 13:14:55;;;;;;;7.57;2.20;;;3.60;72.60;;;;;;5052341;28;20024;-83
2022/01/21 13:17:21;;;;;;;10.60;2.35;;;3.70;70.20;;;;;;5051152;28;20052;-82
2022/01/21 13:19:56;;;;;;;9.18;2.10;;;3.50;69.80;;;;;;5065254;28;20033;-83
2022/01/21 13:22:26;;;;;;;7.30;2.20;;;3.20;70.60;;;;;;5048852;28;20021;-83
2022/01/21 13:25:13;;;;;;;5.75;2.33;;;3.00;71.30;;;;;;5043929;28;20021;-82
2022/01/21 13:27:46;;;;;;;6.88;1.83;;;2.70;71.60;;;;;;5045292;28;20101;-82
2022/01/21 13:30:15;;;;;;;8.52;1.73;;;2.60;72.80;;;;;;5048757;28;20029;-84
2022/01/21 13:32:41;;;;;;;13.70;3.95;;;2.40;73.90;;;;;;5039648;28;20029;-83
2022/01/21 13:35:23;;;;;;;6.03;2.10;;;2.20;75.00;;;;;;5039154;28;20029;-83
2022/01/21 13:38:06;;;;;;;7.55;1.67;;;2.10;73.30;;;;;;5030920;28;20072;-83
2022/01/21 13:40:37;;;;;;;7.55;1.85;;;2.10;73.60;;;;;;5047533;28;20034;-82
2022/01/21 13:43:15;;;;;;;10.25;2.13;;;2.20;74.20;;;;;;5050343;28;20014;-82
2022/01/21 13:45:52;;;;;;;6.97;2.50;;;2.30;74.50;;;;;;5056388;28;20333;-80
2022/01/21 13:48:19;;;;;;;10.82;2.20;;;2.50;73.70;;;;;;5053315;28;20037;-84
2022/01/21 13:50:49;;;;;;;5.75;2.40;;;2.80;72.00;;;;;;5046924;28;20052;-83
2022/01/21 13:53:14;;;;;;;11.85;2.83;;;3.00;70.90;;;;;;5031386;28;20033;-82
2022/01/21 13:55:43;;;;;;;7.65;1.92;;;3.30;70.70;;;;;;5034044;28;20040;-82
2022/01/21 13:58:19;;;;;;;7.72;1.95;;;3.50;70.00;;;;;;5035943;28;20032;-83
2022/01/21 14:01:09;;;;;;;5.30;2.00;;;3.50;69.20;;;;;;5036805;28;20084;-82
2022/01/21 14:03:40;;;;;;;5.32;1.85;;;3.50;70.40;;;;;;5054243;28;20056;-82
2022/01/21 14:06:09;;;;;;;11.43;2.05;;;3.40;70.10;;;;;;5076047;28;20025;-80
2022/01/21 14:08:37;;;;;;;4.30;1.70;;;3.30;70.60;;;;;;5051209;28;20029;-82
2022/01/21 14:11:11;;;;;;;6.57;1.67;;;3.10;71.00;;;;;;5032269;28;20090;-83
2022/01/21 14:13:46;;;;;;;4.80;1.70;;;2.90;71.70;;;;;;5059347;28;20025;-81
2022/01/21 14:16:23;;;;;;;10.70;1.98;;;2.80;71.60;;;;;;5042446;28;20040;-82